Time;durP1;ratioP1;P1;durP2;ratioP2;P2;SDS_P1;SDS_P2;PMS_P1;PMS_P2;Temp;Humidity;BMP_temperature;BMP_pressure;BME280_temperature;BME280_humidity;BME280_pressure;Samples;Min_cycle;Max_cycle;Signal;HPM_P1;HPM_P2
2021/08/27 00:00:38;;;;;;;;;7.67;6.33;;;;;;;;5144833;27;45324;-73
2021/08/27 00:03:03;;;;;;;;;6.00;6.00;;;;;;;;5144521;27;46758;-73
2021/08/27 00:05:29;;;;;;;;;7.67;7.67;;;;;;;;5144360;27;48430;-73
2021/08/27 00:07:54;;;;;;;;;9.33;8.00;;;;;;;;5144358;27;45321;-74
2021/08/27 00:10:20;;;;;;;;;8.00;8.00;;;;;;;;5163420;27;45200;-73
2021/08/27 00:12:45;;;;;;;;;12.00;10.67;;;;;;;;5144363;27;45491;-73
2021/08/27 00:15:11;;;;;;;;;10.00;9.33;;;;;;;;5144143;27;46178;-73
2021/08/27 00:17:37;;;;;;;;;7.67;7.67;;;;;;;;5144338;27;45330;-74
2021/08/27 00:20:03;;;;;;;;;10.00;9.67;;;;;;;;5144202;27;45288;-74
2021/08/27 00:22:28;;;;;;;;;7.67;7.67;;;;;;;;5142880;27;45665;-74
2021/08/27 00:24:54;;;;;;;;;8.00;7.33;;;;;;;;5163136;27;46167;-74
2021/08/27 00:27:19;;;;;;;;;7.33;7.00;;;;;;;;5140596;27;45379;-73
2021/08/27 00:29:44;;;;;;;;;7.67;6.67;;;;;;;;5146016;27;45367;-73
2021/08/27 00:32:10;;;;;;;;;10.67;10.67;;;;;;;;5144076;27;45663;-73
2021/08/27 00:34:35;;;;;;;;;8.00;8.00;;;;;;;;5143986;27;45834;-73
2021/08/27 00:37:04;;;;;;;;;9.67;7.67;;;;;;;;5143757;27;45255;-73
2021/08/27 00:39:29;;;;;;;;;13.00;8.67;;;;;;;;5144066;27;45317;-74
2021/08/27 00:41:54;;;;;;;;;8.00;8.00;;;;;;;;5143698;27;46011;-74
2021/08/27 00:44:20;;;;;;;;;6.67;6.67;;;;;;;;5143863;27;47764;-73
2021/08/27 00:46:45;;;;;;;;;9.33;8.67;;;;;;;;5162790;27;45221;-73
2021/08/27 00:49:10;;;;;;;;;9.00;8.00;;;;;;;;5162656;27;45498;-73
2021/08/27 00:51:35;;;;;;;;;7.33;7.00;;;;;;;;5162392;27;45511;-73
2021/08/27 00:54:02;;;;;;;;;7.33;7.33;;;;;;;;5162671;27;46010;-73
2021/08/27 00:56:28;;;;;;;;;11.00;10.33;;;;;;;;5143643;27;45289;-73
2021/08/27 00:58:54;;;;;;;;;7.00;6.00;;;;;;;;5162753;27;45338;-73
2021/08/27 01:01:20;;;;;;;;;10.67;7.00;;;;;;;;5143545;27;46861;-73
2021/08/27 01:03:45;;;;;;;;;10.00;8.33;;;;;;;;5162461;27;46191;-73
2021/08/27 01:06:21;;;;;;;;;9.00;7.33;;;;;;;;5162346;27;45316;-73
2021/08/27 01:09:05;;;;;;;;;9.67;9.00;;;;;;;;5162621;27;45294;-74
2021/08/27 01:11:32;;;;;;;;;8.00;6.67;;;;;;;;5143524;27;45864;-73
2021/08/27 01:14:02;;;;;;;;;10.67;8.33;;;;;;;;5143374;27;47916;-73
2021/08/27 01:16:31;;;;;;;;;9.00;9.00;;;;;;;;5143485;27;45714;-74
2021/08/27 01:19:11;;;;;;;;;8.00;8.00;;;;;;;;5162424;27;45312;-74
2021/08/27 01:21:36;;;;;;;;;9.67;9.67;;;;;;;;5143015;27;47055;-73
2021/08/27 01:24:03;;;;;;;;;9.67;9.67;;;;;;;;5162191;27;45363;-74
2021/08/27 01:26:32;;;;;;;;;6.00;6.00;;;;;;;;5152871;27;45324;-73
2021/08/27 01:28:57;;;;;;;;;9.33;9.33;;;;;;;;5162173;27;45261;-73
2021/08/27 01:31:42;;;;;;;;;9.00;8.00;;;;;;;;5142509;27;45757;-73
2021/08/27 01:34:24;;;;;;;;;9.00;9.00;;;;;;;;5142702;27;46544;-73
2021/08/27 01:36:51;;;;;;;;;10.00;8.00;;;;;;;;5143129;27;45321;-73
2021/08/27 01:39:16;;;;;;;;;8.33;6.67;;;;;;;;5144912;27;45283;-73
2021/08/27 01:41:44;;;;;;;;;8.67;8.67;;;;;;;;5144470;27;45258;-73
2021/08/27 01:44:10;;;;;;;;;8.67;7.67;;;;;;;;5144669;27;46016;-73
2021/08/27 01:46:41;;;;;;;;;8.67;7.33;;;;;;;;5144688;27;45249;-73
2021/08/27 01:49:08;;;;;;;;;7.33;7.00;;;;;;;;5144582;27;45306;-73
2021/08/27 01:51:35;;;;;;;;;6.33;6.33;;;;;;;;5142838;27;45838;-73
2021/08/27 01:54:01;;;;;;;;;7.67;7.00;;;;;;;;5144445;27;45995;-73
2021/08/27 01:56:27;;;;;;;;;8.00;8.00;;;;;;;;5144558;27;45345;-73
2021/08/27 01:58:52;;;;;;;;;8.00;6.67;;;;;;;;5143080;27;45238;-73
2021/08/27 02:01:18;;;;;;;;;3.33;3.33;;;;;;;;5142997;27;45589;-73
2021/08/27 02:03:44;;;;;;;;;9.67;6.33;;;;;;;;5142871;27;45394;-73
2021/08/27 02:06:10;;;;;;;;;7.67;7.67;;;;;;;;5142621;27;45473;-73
2021/08/27 02:08:37;;;;;;;;;11.00;9.33;;;;;;;;5143212;27;45279;-73
2021/08/27 02:11:02;;;;;;;;;10.33;8.00;;;;;;;;5144110;27;45300;-73
2021/08/27 02:13:29;;;;;;;;;7.00;6.33;;;;;;;;5144042;27;46017;-73
2021/08/27 02:15:54;;;;;;;;;11.67;8.33;;;;;;;;5142840;27;45705;-73
2021/08/27 02:18:20;;;;;;;;;9.00;6.67;;;;;;;;5142875;27;45249;-73
2021/08/27 02:20:45;;;;;;;;;9.00;8.67;;;;;;;;5143831;27;45473;-73
2021/08/27 02:23:12;;;;;;;;;8.67;8.67;;;;;;;;5142408;27;46376;-73
2021/08/27 02:25:39;;;;;;;;;8.67;8.67;;;;;;;;5145951;27;45301;-73
2021/08/27 02:28:05;;;;;;;;;8.00;7.67;;;;;;;;5165128;27;45294;-73
2021/08/27 02:30:31;;;;;;;;;9.33;9.00;;;;;;;;5135292;27;45595;-73
2021/08/27 02:33:05;;;;;;;;;9.33;9.00;;;;;;;;5143862;27;45523;-73
2021/08/27 02:35:31;;;;;;;;;7.33;7.33;;;;;;;;5124970;27;45341;-73
2021/08/27 02:37:59;;;;;;;;;7.00;7.00;;;;;;;;5143639;27;45392;-73
2021/08/27 02:40:24;;;;;;;;;9.00;8.67;;;;;;;;5124966;27;45214;-73
2021/08/27 02:42:50;;;;;;;;;11.00;11.00;;;;;;;;5124694;27;45818;-73
2021/08/27 02:45:15;;;;;;;;;7.67;7.00;;;;;;;;5142874;27;45265;-73
2021/08/27 02:47:40;;;;;;;;;9.67;7.33;;;;;;;;5143901;27;45629;-73
2021/08/27 02:50:06;;;;;;;;;12.00;8.00;;;;;;;;5143367;27;45237;-73
2021/08/27 02:52:42;;;;;;;;;10.00;9.67;;;;;;;;5143157;27;45304;-73
2021/08/27 02:55:12;;;;;;;;;13.00;12.00;;;;;;;;5143673;27;45364;-73
2021/08/27 02:57:53;;;;;;;;;8.67;7.67;;;;;;;;5124963;27;45327;-73
2021/08/27 03:00:20;;;;;;;;;8.67;8.67;;;;;;;;5124707;27;45825;-73
2021/08/27 03:02:46;;;;;;;;;8.33;7.33;;;;;;;;5143358;27;45450;-73
2021/08/27 03:05:13;;;;;;;;;8.33;7.33;;;;;;;;5143291;27;45378;-73
2021/08/27 03:07:41;;;;;;;;;9.00;9.00;;;;;;;;5143101;27;45325;-73
2021/08/27 03:10:09;;;;;;;;;11.00;9.00;;;;;;;;5143085;27;45495;-73
2021/08/27 03:12:44;;;;;;;;;10.67;9.00;;;;;;;;5143164;27;46375;-73
2021/08/27 03:15:11;;;;;;;;;8.67;8.67;;;;;;;;5143153;27;45325;-73
2021/08/27 03:17:40;;;;;;;;;10.00;8.00;;;;;;;;5143351;27;45237;-73
2021/08/27 03:20:06;;;;;;;;;11.33;9.33;;;;;;;;5143113;27;45342;-73
2021/08/27 03:22:35;;;;;;;;;10.00;9.00;;;;;;;;5142676;27;46553;-73
2021/08/27 03:25:02;;;;;;;;;10.00;9.00;;;;;;;;5143102;27;45327;-73
2021/08/27 03:27:31;;;;;;;;;9.33;8.00;;;;;;;;5164014;27;45319;-73
2021/08/27 03:29:59;;;;;;;;;12.00;9.33;;;;;;;;5163750;27;45309;-73
2021/08/27 03:32:25;;;;;;;;;8.67;8.67;;;;;;;;5163703;27;45556;-73
2021/08/27 03:34:51;;;;;;;;;10.00;10.00;;;;;;;;5144799;27;45644;-73
2021/08/27 03:37:17;;;;;;;;;8.00;7.00;;;;;;;;5163704;27;45293;-73
2021/08/27 03:39:43;;;;;;;;;10.67;9.67;;;;;;;;5163814;27;45353;-73
2021/08/27 03:42:09;;;;;;;;;13.67;12.00;;;;;;;;5163531;27;45375;-73
2021/08/27 03:44:35;;;;;;;;;11.00;10.00;;;;;;;;5163736;27;45260;-73
2021/08/27 03:47:01;;;;;;;;;9.67;8.33;;;;;;;;5144823;27;45466;-73
2021/08/27 03:49:27;;;;;;;;;9.00;7.67;;;;;;;;5144349;27;46777;-73
2021/08/27 03:51:53;;;;;;;;;12.33;9.67;;;;;;;;5144144;27;47580;-74
2021/08/27 03:54:19;;;;;;;;;7.00;5.67;;;;;;;;5163607;27;45386;-73
2021/08/27 03:56:46;;;;;;;;;8.00;7.67;;;;;;;;5163413;27;45242;-73
2021/08/27 03:59:12;;;;;;;;;11.67;10.00;;;;;;;;5144728;27;45715;-73
2021/08/27 04:01:37;;;;;;;;;11.67;10.00;;;;;;;;5163283;27;45230;-73
2021/08/27 04:04:04;;;;;;;;;10.00;7.33;;;;;;;;5163539;27;45285;-73
2021/08/27 04:06:29;;;;;;;;;10.00;8.00;;;;;;;;5163261;27;45297;-73
2021/08/27 04:08:55;;;;;;;;;8.67;8.67;;;;;;;;5163383;27;45441;-73
2021/08/27 04:11:20;;;;;;;;;12.67;11.67;;;;;;;;5163159;27;46196;-73
2021/08/27 04:13:45;;;;;;;;;10.33;9.67;;;;;;;;5163353;27;45196;-73
2021/08/27 04:16:11;;;;;;;;;9.67;8.33;;;;;;;;5163434;27;45217;-73
2021/08/27 04:18:36;;;;;;;;;9.67;9.33;;;;;;;;5144225;27;46548;-73
2021/08/27 04:21:05;;;;;;;;;9.33;9.33;;;;;;;;5162899;27;45293;-73
2021/08/27 04:23:31;;;;;;;;;14.00;13.33;;;;;;;;5144072;27;45293;-73
2021/08/27 04:25:56;;;;;;;;;11.67;10.67;;;;;;;;5140772;27;45324;-73
2021/08/27 04:28:22;;;;;;;;;10.33;10.00;;;;;;;;5140817;27;47235;-73
2021/08/27 04:30:47;;;;;;;;;15.67;11.67;;;;;;;;5154736;27;45469;-73
2021/08/27 04:33:12;;;;;;;;;11.00;10.33;;;;;;;;5144232;27;45341;-73
2021/08/27 04:35:38;;;;;;;;;11.33;11.33;;;;;;;;5162943;27;45394;-73
2021/08/27 04:38:03;;;;;;;;;14.33;10.33;;;;;;;;5162832;27;45347;-73
2021/08/27 04:40:28;;;;;;;;;10.67;9.33;;;;;;;;5143901;27;47232;-73
2021/08/27 04:42:54;;;;;;;;;10.00;10.00;;;;;;;;5162650;27;45261;-73
2021/08/27 04:45:19;;;;;;;;;10.67;9.67;;;;;;;;5162804;27;45221;-73
2021/08/27 04:47:45;;;;;;;;;15.33;12.00;;;;;;;;5162777;27;45155;-73
2021/08/27 04:50:10;;;;;;;;;12.67;10.67;;;;;;;;5162465;27;46046;-73
2021/08/27 04:52:37;;;;;;;;;14.00;12.67;;;;;;;;5143511;27;45329;-73
2021/08/27 04:55:02;;;;;;;;;10.33;10.00;;;;;;;;5143880;27;45358;-73
2021/08/27 04:57:29;;;;;;;;;11.00;11.00;;;;;;;;5162452;27;45300;-73
2021/08/27 04:59:55;;;;;;;;;10.33;9.33;;;;;;;;5162781;27;45581;-73
2021/08/27 05:02:20;;;;;;;;;13.33;11.67;;;;;;;;5143665;27;45370;-73
2021/08/27 05:04:46;;;;;;;;;16.33;12.00;;;;;;;;5162760;27;45391;-73
2021/08/27 05:07:11;;;;;;;;;13.67;12.67;;;;;;;;5143352;27;45558;-73
2021/08/27 05:09:37;;;;;;;;;8.00;8.00;;;;;;;;5164756;27;45331;-73
2021/08/27 05:12:02;;;;;;;;;12.00;11.33;;;;;;;;5147401;27;45289;-74
2021/08/27 05:14:27;;;;;;;;;12.00;10.00;;;;;;;;5166436;27;45375;-73
2021/08/27 05:16:53;;;;;;;;;13.33;13.00;;;;;;;;5166141;27;45288;-73
2021/08/27 05:19:18;;;;;;;;;13.00;12.00;;;;;;;;5166156;27;45230;-73
2021/08/27 05:21:43;;;;;;;;;12.33;12.33;;;;;;;;5165831;27;45276;-73
2021/08/27 05:24:09;;;;;;;;;15.00;11.33;;;;;;;;5166273;27;45167;-73
2021/08/27 05:26:35;;;;;;;;;10.00;10.00;;;;;;;;5157349;27;45561;-73
2021/08/27 05:29:01;;;;;;;;;11.33;10.67;;;;;;;;5164515;27;48315;-73
2021/08/27 05:31:26;;;;;;;;;14.67;13.00;;;;;;;;5146944;27;45213;-73
2021/08/27 05:33:52;;;;;;;;;12.67;11.67;;;;;;;;5145019;27;45193;-73
2021/08/27 05:36:17;;;;;;;;;15.00;13.33;;;;;;;;5144708;27;45235;-73
2021/08/27 05:38:45;;;;;;;;;11.00;11.00;;;;;;;;5143374;27;46633;-73
2021/08/27 05:41:11;;;;;;;;;15.00;13.00;;;;;;;;5143115;27;45348;-73
2021/08/27 05:43:36;;;;;;;;;12.33;10.33;;;;;;;;5143428;27;45377;-73
2021/08/27 05:46:02;;;;;;;;;12.33;12.00;;;;;;;;5143171;27;45511;-73
2021/08/27 05:48:27;;;;;;;;;12.67;11.33;;;;;;;;5144474;27;45986;-73
2021/08/27 05:50:54;;;;;;;;;13.00;12.00;;;;;;;;5142735;27;45313;-73
2021/08/27 05:53:23;;;;;;;;;16.33;16.33;;;;;;;;5143147;27;45511;-73
2021/08/27 05:55:48;;;;;;;;;12.00;11.67;;;;;;;;5143162;27;46537;-73
2021/08/27 05:58:14;;;;;;;;;13.67;12.33;;;;;;;;5142513;27;46028;-73
2021/08/27 06:00:39;;;;;;;;;16.00;13.00;;;;;;;;5142964;27;45339;-73
2021/08/27 06:03:05;;;;;;;;;14.33;13.33;;;;;;;;5143161;27;45362;-73
2021/08/27 06:05:35;;;;;;;;;11.00;11.00;;;;;;;;5142579;27;45407;-73
2021/08/27 06:08:01;;;;;;;;;13.67;12.33;;;;;;;;5144044;27;45864;-73
2021/08/27 06:10:26;;;;;;;;;10.00;8.67;;;;;;;;5142751;27;45294;-73
2021/08/27 06:12:52;;;;;;;;;13.33;11.00;;;;;;;;5142901;27;45329;-73
2021/08/27 06:15:17;;;;;;;;;14.67;13.00;;;;;;;;5144259;27;45204;-72
2021/08/27 06:17:43;;;;;;;;;14.33;14.33;;;;;;;;5144196;27;45883;-73
2021/08/27 06:20:09;;;;;;;;;14.00;14.00;;;;;;;;5141500;27;45368;-73
2021/08/27 06:22:35;;;;;;;;;13.67;11.33;;;;;;;;5144042;27;45374;-74
2021/08/27 06:25:00;;;;;;;;;12.33;12.33;;;;;;;;5142623;27;46306;-73
2021/08/27 06:27:26;;;;;;;;;18.00;13.67;;;;;;;;5145874;27;45618;-72
2021/08/27 06:29:51;;;;;;;;;17.00;15.00;;;;;;;;5140978;27;45266;-72
2021/08/27 06:32:17;;;;;;;;;15.00;13.67;;;;;;;;5125403;27;45306;-73
2021/08/27 06:34:42;;;;;;;;;14.67;13.67;;;;;;;;5125077;27;46067;-72
2021/08/27 06:37:07;;;;;;;;;13.33;12.00;;;;;;;;5143547;27;45689;-75
2021/08/27 06:39:33;;;;;;;;;12.67;11.67;;;;;;;;5125119;27;45287;-75
2021/08/27 06:41:58;;;;;;;;;14.00;12.33;;;;;;;;5125204;27;45429;-74
2021/08/27 06:44:24;;;;;;;;;17.33;13.67;;;;;;;;5124954;27;45598;-72
2021/08/27 06:46:49;;;;;;;;;20.67;20.00;;;;;;;;5143515;27;45913;-72
2021/08/27 06:49:14;;;;;;;;;37.33;31.33;;;;;;;;5143483;27;45257;-75
2021/08/27 06:51:41;;;;;;;;;16.00;13.67;;;;;;;;5143485;27;45218;-72
2021/08/27 06:54:06;;;;;;;;;26.33;23.33;;;;;;;;5124728;27;45815;-72
2021/08/27 06:56:31;;;;;;;;;16.00;14.33;;;;;;;;5124698;27;46269;-73
2021/08/27 06:58:57;;;;;;;;;16.00;16.00;;;;;;;;5124728;27;45281;-73
2021/08/27 07:01:22;;;;;;;;;20.33;16.67;;;;;;;;5143687;27;45298;-73
2021/08/27 07:03:48;;;;;;;;;19.00;16.67;;;;;;;;5124685;27;45271;-73
2021/08/27 07:06:14;;;;;;;;;17.67;16.33;;;;;;;;5143050;27;45363;-73
2021/08/27 07:08:40;;;;;;;;;18.33;16.00;;;;;;;;5143498;27;45247;-73
2021/08/27 07:11:05;;;;;;;;;23.67;20.33;;;;;;;;5124646;27;45304;-73
2021/08/27 07:13:31;;;;;;;;;18.00;17.67;;;;;;;;5124305;27;45285;-73
2021/08/27 07:15:56;;;;;;;;;22.33;18.00;;;;;;;;5143206;27;45947;-73
2021/08/27 07:18:23;;;;;;;;;16.67;16.33;;;;;;;;5124383;27;45359;-73
2021/08/27 07:20:48;;;;;;;;;17.67;15.67;;;;;;;;5124490;27;45314;-74
2021/08/27 07:23:14;;;;;;;;;14.33;14.33;;;;;;;;5124060;27;46103;-74
2021/08/27 07:25:42;;;;;;;;;23.00;21.67;;;;;;;;5148637;27;46102;-74
2021/08/27 07:28:07;;;;;;;;;17.33;16.00;;;;;;;;5145119;27;45287;-74
2021/08/27 07:30:33;;;;;;;;;23.00;20.33;;;;;;;;5163854;27;45173;-74
2021/08/27 07:32:58;;;;;;;;;20.67;20.33;;;;;;;;5163466;27;45160;-73
2021/08/27 07:35:23;;;;;;;;;28.67;24.00;;;;;;;;5163611;27;45167;-73
2021/08/27 07:37:49;;;;;;;;;41.33;34.33;;;;;;;;5163827;27;45367;-73
2021/08/27 07:40:17;;;;;;;;;35.00;30.00;;;;;;;;5163946;27;45625;-73
2021/08/27 07:42:42;;;;;;;;;22.00;21.33;;;;;;;;5163576;27;45300;-73
2021/08/27 07:45:08;;;;;;;;;55.75;44.25;;;;;;;;5144681;27;47100;-73
2021/08/27 07:47:33;;;;;;;;;53.75;42.50;;;;;;;;5144720;27;45294;-73
2021/08/27 07:49:59;;;;;;;;;52.75;41.50;;;;;;;;5163437;27;45288;-73
2021/08/27 07:52:24;;;;;;;;;49.00;37.67;;;;;;;;5163286;27;45268;-73
2021/08/27 07:54:50;;;;;;;;;62.50;47.25;;;;;;;;5163384;27;46178;-73
2021/08/27 07:57:15;;;;;;;;;82.25;71.50;;;;;;;;5163521;27;45225;-73
2021/08/27 07:59:40;;;;;;;;;36.00;31.33;;;;;;;;5163576;27;45264;-73
2021/08/27 08:02:06;;;;;;;;;35.00;30.00;;;;;;;;5163452;27;45248;-74
2021/08/27 08:04:34;;;;;;;;;16.67;15.33;;;;;;;;5163445;27;45250;-74
2021/08/27 08:06:59;;;;;;;;;18.67;16.00;;;;;;;;5144234;27;45345;-75
2021/08/27 08:09:25;;;;;;;;;36.67;32.00;;;;;;;;5144503;27;45319;-74
2021/08/27 08:11:51;;;;;;;;;16.67;16.67;;;;;;;;5163190;27;45498;-74
2021/08/27 08:14:16;;;;;;;;;49.00;37.00;;;;;;;;5144346;27;47191;-74
2021/08/27 08:16:42;;;;;;;;;63.50;50.75;;;;;;;;5163015;27;45293;-74
2021/08/27 08:19:09;;;;;;;;;41.67;33.33;;;;;;;;5163374;27;45359;-75
2021/08/27 08:21:35;;;;;;;;;33.00;28.33;;;;;;;;5162798;27;45474;-74
2021/08/27 08:24:00;;;;;;;;;20.33;19.33;;;;;;;;5162892;27;45205;-74
2021/08/27 08:26:25;;;;;;;;;25.00;20.67;;;;;;;;5140467;27;45226;-74
2021/08/27 08:28:54;;;;;;;;;15.33;14.67;;;;;;;;5140851;27;45443;-74
2021/08/27 08:31:20;;;;;;;;;13.33;12.33;;;;;;;;5159427;27;45517;-74
2021/08/27 08:33:49;;;;;;;;;28.67;25.00;;;;;;;;5162833;27;46105;-73
2021/08/27 08:36:15;;;;;;;;;45.33;36.33;;;;;;;;5162533;27;45221;-74
2021/08/27 08:38:40;;;;;;;;;42.67;35.67;;;;;;;;5162949;27;45160;-73
2021/08/27 08:41:06;;;;;;;;;51.33;42.67;;;;;;;;5143689;27;46594;-74
2021/08/27 08:43:31;;;;;;;;;32.33;30.00;;;;;;;;5142871;27;47387;-73
2021/08/27 08:45:57;;;;;;;;;11.67;11.00;;;;;;;;5162815;27;45205;-73
2021/08/27 08:48:26;;;;;;;;;43.00;35.33;;;;;;;;5143983;27;45275;-73
2021/08/27 08:50:52;;;;;;;;;18.00;17.67;;;;;;;;5143337;27;45531;-74
2021/08/27 08:53:21;;;;;;;;;15.33;14.33;;;;;;;;5162533;27;45289;-74
2021/08/27 08:55:49;;;;;;;;;55.00;44.00;;;;;;;;5162815;27;45269;-73
2021/08/27 08:58:15;;;;;;;;;55.67;43.67;;;;;;;;5162546;27;45353;-74
2021/08/27 09:00:40;;;;;;;;;6.33;4.33;;;;;;;;5162584;27;45411;-74
2021/08/27 09:03:06;;;;;;;;;7.33;6.00;;;;;;;;5162614;27;45315;-73
2021/08/27 09:05:31;;;;;;;;;11.67;11.67;;;;;;;;5162263;27;45242;-75
2021/08/27 09:07:57;;;;;;;;;8.00;7.00;;;;;;;;5162688;27;45261;-74
2021/08/27 09:10:23;;;;;;;;;2.33;2.33;;;;;;;;5162314;27;45295;-74
2021/08/27 09:12:49;;;;;;;;;4.33;4.33;;;;;;;;5162475;27;45337;-74
2021/08/27 09:15:15;;;;;;;;;9.33;7.00;;;;;;;;5162361;27;45307;-74
2021/08/27 09:17:42;;;;;;;;;19.33;16.33;;;;;;;;5162501;27;45323;-74
2021/08/27 09:20:09;;;;;;;;;14.33;13.33;;;;;;;;5162236;27;45151;-74
2021/08/27 09:22:50;;;;;;;;;32.33;23.33;;;;;;;;5161867;27;45438;-73
2021/08/27 09:25:16;;;;;;;;;26.33;25.33;;;;;;;;5164331;27;45194;-73
2021/08/27 09:28:02;;;;;;;;;52.67;42.33;;;;;;;;5183367;27;45271;-74
2021/08/27 09:30:27;;;;;;;;;33.33;27.33;;;;;;;;5172114;27;45484;-73
2021/08/27 09:32:53;;;;;;;;;70.50;57.50;;;;;;;;5143137;27;47046;-74
2021/08/27 09:35:21;;;;;;;;;24.33;21.67;;;;;;;;5142985;27;45308;-74
2021/08/27 09:37:48;;;;;;;;;15.33;11.33;;;;;;;;5162154;27;45301;-74
2021/08/27 09:40:15;;;;;;;;;7.00;7.00;;;;;;;;5162273;27;45172;-74
2021/08/27 09:42:45;;;;;;;;;2.00;2.00;;;;;;;;5161652;27;45803;-74
2021/08/27 09:45:11;;;;;;;;;13.33;11.00;;;;;;;;5162054;27;45389;-74
2021/08/27 09:47:36;;;;;;;;;11.00;10.00;;;;;;;;5143400;27;45385;-74
2021/08/27 09:50:21;;;;;;;;;13.33;12.00;;;;;;;;5161744;27;45451;-74
2021/08/27 09:52:56;;;;;;;;;21.33;17.33;;;;;;;;5161804;27;45327;-74
2021/08/27 09:55:21;;;;;;;;;14.67;13.33;;;;;;;;5144933;27;45363;-74
2021/08/27 09:57:47;;;;;;;;;29.33;27.00;;;;;;;;5165509;27;45252;-75
2021/08/27 10:00:21;;;;;;;;;2.00;2.00;;;;;;;;5165576;27;45317;-74
2021/08/27 10:02:47;;;;;;;;;4.67;4.00;;;;;;;;5165371;27;45378;-74
2021/08/27 10:05:13;;;;;;;;;1.00;1.00;;;;;;;;5165157;27;45329;-74
2021/08/27 10:07:40;;;;;;;;;2.00;2.00;;;;;;;;5165367;27;45453;-74
2021/08/27 10:10:08;;;;;;;;;13.67;11.33;;;;;;;;5165261;27;45490;-73
2021/08/27 10:12:35;;;;;;;;;6.33;5.33;;;;;;;;5165171;27;46011;-74
2021/08/27 10:15:01;;;;;;;;;42.00;34.33;;;;;;;;5165181;27;45333;-73
2021/08/27 10:17:27;;;;;;;;;19.33;17.33;;;;;;;;5165291;27;45294;-74
2021/08/27 10:19:53;;;;;;;;;15.33;15.00;;;;;;;;5165124;27;45253;-74
2021/08/27 10:22:19;;;;;;;;;56.67;43.33;;;;;;;;5164547;27;46242;-75
2021/08/27 10:24:46;;;;;;;;;26.00;23.33;;;;;;;;5165211;27;45230;-74
2021/08/27 10:27:13;;;;;;;;;29.00;28.00;;;;;;;;5164828;27;45218;-74
2021/08/27 10:29:47;;;;;;;;;33.33;29.00;;;;;;;;5164729;27;45249;-74
2021/08/27 10:32:12;;;;;;;;;6.33;6.00;;;;;;;;5164669;27;46029;-74
2021/08/27 10:34:39;;;;;;;;;15.00;12.00;;;;;;;;5164803;27;45327;-75
2021/08/27 10:37:05;;;;;;;;;5.00;4.00;;;;;;;;5164790;27;45315;-75
2021/08/27 10:39:33;;;;;;;;;26.67;25.33;;;;;;;;5164968;27;45276;-74
2021/08/27 10:41:58;;;;;;;;;1.00;1.00;;;;;;;;5164588;27;45315;-75
2021/08/27 10:44:43;;;;;;;;;2.00;1.00;;;;;;;;5164892;27;45155;-75
2021/08/27 10:47:08;;;;;;;;;1.00;1.00;;;;;;;;5164992;27;45382;-75
2021/08/27 10:49:43;;;;;;;;;1.67;1.00;;;;;;;;5164511;27;45215;-74
2021/08/27 10:52:23;;;;;;;;;2.00;1.00;;;;;;;;5164442;27;45423;-76
2021/08/27 10:55:04;;;;;;;;;3.00;1.33;;;;;;;;5164507;27;45412;-74
2021/08/27 10:57:50;;;;;;;;;12.67;8.33;;;;;;;;5164658;27;45229;-74
2021/08/27 11:00:47;;;;;;;;;5.33;5.33;;;;;;;;5163729;27;45484;-74
2021/08/27 11:03:14;;;;;;;;;61.50;47.50;;;;;;;;5143043;27;45483;-74
2021/08/27 11:05:42;;;;;;;;;10.67;10.67;;;;;;;;5145020;27;45379;-74
2021/08/27 11:08:09;;;;;;;;;1.00;1.00;;;;;;;;5163839;27;45232;-76
2021/08/27 11:10:36;;;;;;;;;1.67;1.67;;;;;;;;5164196;27;45642;-74
2021/08/27 11:13:05;;;;;;;;;6.00;5.00;;;;;;;;5164314;27;46265;-74
2021/08/27 11:15:31;;;;;;;;;2.00;2.00;;;;;;;;5164325;27;45319;-74
2021/08/27 11:18:07;;;;;;;;;49.00;39.00;;;;;;;;5164569;27;45332;-75
2021/08/27 11:20:32;;;;;;;;;7.00;7.00;;;;;;;;5164261;27;45457;-76
2021/08/27 11:22:58;;;;;;;;;16.67;14.00;;;;;;;;5164028;27;46359;-74
2021/08/27 11:25:24;;;;;;;;;0.67;0.67;;;;;;;;5167476;27;45313;-74
2021/08/27 11:28:08;;;;;;;;;10.67;9.67;;;;;;;;5185382;27;45279;-74
2021/08/27 11:30:33;;;;;;;;;13.00;11.67;;;;;;;;5170079;27;45502;-74
2021/08/27 11:33:00;;;;;;;;;2.00;1.67;;;;;;;;5163406;27;45366;-74
2021/08/27 11:35:26;;;;;;;;;2.00;2.00;;;;;;;;5163516;27;45285;-74
2021/08/27 11:37:58;;;;;;;;;1.00;1.00;;;;;;;;5163544;27;45359;-74
2021/08/27 11:40:24;;;;;;;;;4.00;2.67;;;;;;;;5163513;27;45275;-74
2021/08/27 11:42:55;;;;;;;;;0.00;0.00;;;;;;;;5144022;27;45389;-74
2021/08/27 11:45:21;;;;;;;;;22.67;21.00;;;;;;;;5131600;27;45356;-75
2021/08/27 11:47:51;;;;;;;;;5.67;5.67;;;;;;;;5163704;27;45342;-74
2021/08/27 11:50:16;;;;;;;;;3.00;3.00;;;;;;;;5163115;27;45280;-74
2021/08/27 11:52:42;;;;;;;;;6.00;5.00;;;;;;;;5163343;27;45280;-75
2021/08/27 11:55:11;;;;;;;;;11.67;11.67;;;;;;;;5163775;27;45316;-75
2021/08/27 11:57:36;;;;;;;;;19.00;16.33;;;;;;;;5164158;27;45335;-74
2021/08/27 12:00:11;;;;;;;;;6.00;4.00;;;;;;;;5163475;27;45553;-74
2021/08/27 12:02:37;;;;;;;;;1.00;1.00;;;;;;;;5163354;27;46496;-75
2021/08/27 12:05:10;;;;;;;;;1.67;1.33;;;;;;;;5162636;27;46146;-75
2021/08/27 12:07:40;;;;;;;;;37.00;29.33;;;;;;;;5161532;27;45339;-75
2021/08/27 12:10:12;;;;;;;;;3.00;2.67;;;;;;;;5163343;27;45240;-75
2021/08/27 12:12:38;;;;;;;;;25.00;22.33;;;;;;;;5162116;27;45477;-75
2021/08/27 12:15:05;;;;;;;;;54.67;41.67;;;;;;;;5163707;27;45171;-75
2021/08/27 12:17:30;;;;;;;;;1.67;1.67;;;;;;;;5163533;27;45329;-74
2021/08/27 12:19:56;;;;;;;;;7.00;6.33;;;;;;;;5163561;27;45334;-74
2021/08/27 12:22:24;;;;;;;;;3.33;3.33;;;;;;;;5163006;27;46276;-75
2021/08/27 12:24:51;;;;;;;;;2.33;2.33;;;;;;;;5159904;27;45477;-75
2021/08/27 12:27:16;;;;;;;;;2.33;2.33;;;;;;;;5161183;27;45309;-75
2021/08/27 12:29:42;;;;;;;;;4.00;3.00;;;;;;;;5162754;27;45305;-75
2021/08/27 12:32:12;;;;;;;;;2.33;2.33;;;;;;;;5163139;27;45354;-75
2021/08/27 12:34:38;;;;;;;;;2.67;2.67;;;;;;;;5163198;27;45210;-75
2021/08/27 12:37:03;;;;;;;;;3.00;3.00;;;;;;;;5162585;27;45293;-74
2021/08/27 12:39:29;;;;;;;;;11.67;11.33;;;;;;;;5180086;27;45155;-75
2021/08/27 12:42:09;;;;;;;;;1.33;1.33;;;;;;;;5164871;27;46723;-74
2021/08/27 12:44:34;;;;;;;;;0.67;0.67;;;;;;;;5164903;27;45383;-75
2021/08/27 12:47:00;;;;;;;;;21.33;17.33;;;;;;;;5184111;27;45196;-75
2021/08/27 12:49:26;;;;;;;;;34.00;29.67;;;;;;;;5183713;27;45269;-75
2021/08/27 12:51:53;;;;;;;;;16.00;13.67;;;;;;;;5183560;27;45762;-74
2021/08/27 12:54:19;;;;;;;;;13.00;10.67;;;;;;;;5180189;27;45163;-75
2021/08/27 12:56:56;;;;;;;;;3.67;3.67;;;;;;;;5163219;27;45350;-75
2021/08/27 12:59:22;;;;;;;;;3.33;3.33;;;;;;;;5144204;27;45884;-76
2021/08/27 13:01:47;;;;;;;;;2.33;2.33;;;;;;;;5162649;27;45382;-75
2021/08/27 13:04:12;;;;;;;;;4.00;3.00;;;;;;;;5162814;27;45412;-75
2021/08/27 13:06:47;;;;;;;;;3.00;3.00;;;;;;;;5162864;27;45326;-75
2021/08/27 13:09:15;;;;;;;;;4.00;4.00;;;;;;;;5162612;27;45290;-75
2021/08/27 13:11:44;;;;;;;;;3.33;3.00;;;;;;;;5162415;27;46193;-75
2021/08/27 13:14:16;;;;;;;;;3.00;2.00;;;;;;;;5159385;27;45443;-76
2021/08/27 13:16:49;;;;;;;;;4.00;4.00;;;;;;;;5162255;27;45280;-75
2021/08/27 13:19:14;;;;;;;;;5.00;5.00;;;;;;;;5162409;27;45359;-75
2021/08/27 13:21:40;;;;;;;;;3.67;3.67;;;;;;;;5161574;27;45251;-75
2021/08/27 13:24:09;;;;;;;;;3.00;3.00;;;;;;;;5142942;27;45651;-75
2021/08/27 13:26:35;;;;;;;;;4.67;4.67;;;;;;;;5142128;27;45826;-75
2021/08/27 13:29:01;;;;;;;;;5.00;5.00;;;;;;;;5162183;27;45389;-76
2021/08/27 13:31:26;;;;;;;;;4.00;4.00;;;;;;;;5165646;27;45850;-75
2021/08/27 13:33:52;;;;;;;;;5.33;5.00;;;;;;;;5165929;27;45280;-75
2021/08/27 13:36:17;;;;;;;;;3.67;3.67;;;;;;;;5165968;27;45285;-76
2021/08/27 13:38:42;;;;;;;;;5.00;5.00;;;;;;;;5162656;27;45336;-77
2021/08/27 13:41:08;;;;;;;;;1.33;1.33;;;;;;;;5153239;27;46122;-78
2021/08/27 13:43:34;;;;;;;;;4.67;4.00;;;;;;;;5133802;27;45374;-76
2021/08/27 13:45:59;;;;;;;;;3.00;3.00;;;;;;;;5134181;27;45398;-76
2021/08/27 13:48:24;;;;;;;;;6.33;5.67;;;;;;;;5159790;27;45287;-78
2021/08/27 13:50:50;;;;;;;;;5.00;5.00;;;;;;;;5156380;27;45406;-76
2021/08/27 13:53:15;;;;;;;;;5.00;5.00;;;;;;;;5130406;27;45321;-75
2021/08/27 13:55:41;;;;;;;;;4.33;4.33;;;;;;;;5139030;27;45463;-76
2021/08/27 13:58:06;;;;;;;;;4.00;2.67;;;;;;;;5140574;27;45320;-78
2021/08/27 14:00:32;;;;;;;;;3.67;3.33;;;;;;;;5135539;27;46724;-76
2021/08/27 14:02:57;;;;;;;;;10.00;9.67;;;;;;;;5136383;27;45188;-76
2021/08/27 14:05:25;;;;;;;;;3.67;3.67;;;;;;;;5127856;27;45375;-82
2021/08/27 14:07:51;;;;;;;;;7.00;7.00;;;;;;;;5145306;27;45990;-77
2021/08/27 14:10:17;;;;;;;;;5.00;5.00;;;;;;;;5148951;27;45453;-78
2021/08/27 14:12:42;;;;;;;;;4.67;3.00;;;;;;;;5159970;27;45304;-77
2021/08/27 14:15:09;;;;;;;;;13.67;12.00;;;;;;;;5147515;27;45692;-77
2021/08/27 14:17:35;;;;;;;;;18.00;17.67;;;;;;;;5135220;27;45449;-77
2021/08/27 14:20:01;;;;;;;;;24.00;20.33;;;;;;;;5132519;27;45442;-76
2021/08/27 14:22:26;;;;;;;;;4.00;4.00;;;;;;;;5130780;27;45329;-75
2021/08/27 14:24:52;;;;;;;;;3.00;3.00;;;;;;;;5156026;27;45374;-75
2021/08/27 14:27:17;;;;;;;;;1.67;1.67;;;;;;;;5144664;27;45636;-79